createdAt,value
2022-12-27T00:00:01.920Z,93.40
2022-12-27T00:00:11.395Z,93.40
2022-12-27T00:00:20.899Z,93.40
2022-12-27T00:00:30.313Z,93.40
2022-12-27T00:00:39.779Z,93.50
2022-12-27T00:01:16.607Z,93.60
2022-12-27T00:01:26.222Z,93.50
2022-12-27T00:01:35.731Z,93.70
2022-12-27T00:01:45.100Z,93.70
2022-12-27T00:01:54.498Z,93.70
2022-12-27T00:02:03.930Z,93.80
2022-12-27T00:02:13.401Z,93.80
2022-12-27T00:02:22.887Z,93.80
2022-12-27T00:02:32.196Z,93.80
2022-12-27T00:02:41.711Z,93.90
2022-12-27T00:02:51.011Z,93.90
2022-12-27T00:03:00.407Z,93.90
2022-12-27T00:03:09.835Z,93.90
2022-12-27T00:03:19.241Z,93.90
2022-12-27T00:03:28.584Z,93.90
2022-12-27T00:03:38.001Z,94.00
2022-12-27T00:03:47.406Z,94.00
2022-12-27T00:03:56.814Z,94.00
2022-12-27T00:04:06.219Z,94.00
2022-12-27T00:04:15.617Z,94.10
2022-12-27T00:04:25.022Z,94.10
2022-12-27T00:04:34.430Z,94.20
2022-12-27T00:04:44.127Z,94.20
2022-12-27T00:04:53.388Z,94.20
2022-12-27T00:05:02.821Z,94.20
2022-12-27T00:05:12.255Z,94.20
2022-12-27T00:05:21.657Z,94.20
2022-12-27T00:05:31.306Z,94.20
2022-12-27T00:05:40.717Z,94.20
2022-12-27T00:05:50.164Z,94.10
2022-12-27T00:06:00.096Z,94.10
2022-12-27T00:06:09.516Z,94.00
2022-12-27T00:06:18.954Z,93.90
2022-12-27T00:06:38.024Z,93.80
2022-12-27T00:06:47.489Z,93.70
2022-12-27T00:06:56.880Z,93.60
2022-12-27T00:07:06.274Z,93.50
2022-12-27T00:07:15.787Z,93.40
2022-12-27T00:07:25.220Z,93.40
2022-12-27T00:07:34.643Z,93.30
2022-12-27T00:07:44.076Z,93.20
2022-12-27T00:07:53.475Z,93.10
2022-12-27T00:08:02.893Z,92.90
2022-12-27T00:08:12.317Z,92.90
2022-12-27T00:08:21.873Z,92.70
2022-12-27T00:08:31.325Z,92.70
2022-12-27T00:08:40.738Z,92.60
2022-12-27T00:08:50.219Z,92.50
2022-12-27T00:08:59.630Z,92.40
2022-12-27T00:09:09.027Z,92.30
2022-12-27T00:09:27.811Z,92.10
2022-12-27T00:09:37.210Z,92.00
2022-12-27T00:09:46.619Z,91.90
2022-12-27T00:09:56.030Z,91.80
2022-12-27T00:10:05.444Z,91.70
2022-12-27T00:10:14.863Z,91.60
2022-12-27T00:10:24.288Z,91.50
2022-12-27T00:10:33.700Z,91.40
2022-12-27T00:10:43.347Z,91.30
2022-12-27T00:10:52.766Z,91.20
2022-12-27T00:11:02.166Z,91.10
2022-12-27T00:11:11.614Z,91.00
2022-12-27T00:11:21.088Z,90.90
2022-12-27T00:11:30.540Z,90.90
2022-12-27T00:11:39.937Z,90.80
2022-12-27T00:11:52.379Z,90.70
2022-12-27T00:12:00.118Z,90.60
2022-12-27T00:12:17.577Z,90.50
2022-12-27T00:12:27.008Z,90.50
2022-12-27T00:12:36.397Z,90.40
2022-12-27T00:12:45.820Z,90.40
2022-12-27T00:12:55.240Z,90.30
2022-12-27T00:13:04.636Z,90.20
2022-12-27T00:13:14.036Z,90.10
2022-12-27T00:13:23.514Z,90.00
2022-12-27T00:13:32.946Z,90.00
2022-12-27T00:13:42.340Z,89.90
2022-12-27T00:13:51.749Z,90.00
2022-12-27T00:14:01.223Z,89.80
2022-12-27T00:14:10.619Z,89.60
2022-12-27T00:14:20.007Z,89.50
2022-12-27T00:14:29.413Z,89.40
2022-12-27T00:14:38.837Z,89.30
2022-12-27T00:14:57.671Z,89.20
2022-12-27T00:15:07.052Z,89.10
2022-12-27T00:15:16.499Z,89.00
2022-12-27T00:15:25.916Z,88.90
2022-12-27T00:15:35.331Z,88.80
2022-12-27T00:15:44.732Z,88.60
2022-12-27T00:15:54.157Z,88.50
2022-12-27T00:16:03.597Z,88.40
2022-12-27T00:16:13.146Z,88.30
2022-12-27T00:16:22.483Z,88.30
2022-12-27T00:16:32.098Z,88.20
2022-12-27T00:16:41.336Z,88.10
2022-12-27T00:16:50.740Z,88.00
2022-12-27T00:17:00.102Z,87.90
2022-12-27T00:17:09.557Z,87.80
2022-12-27T00:17:19.001Z,87.80
2022-12-27T00:17:37.793Z,87.70
2022-12-27T00:17:47.201Z,87.80
2022-12-27T00:17:56.616Z,87.70
2022-12-27T00:18:06.044Z,87.50
2022-12-27T00:18:15.515Z,87.40
2022-12-27T00:18:24.936Z,87.30
2022-12-27T00:18:34.354Z,87.20
2022-12-27T00:18:43.759Z,87.20
2022-12-27T00:18:53.157Z,87.10
2022-12-27T00:19:02.570Z,87.00
2022-12-27T00:19:11.989Z,87.00
2022-12-27T00:19:21.453Z,86.90
2022-12-27T00:19:30.861Z,86.70
2022-12-27T00:19:40.261Z,86.60
2022-12-27T00:19:49.683Z,86.60
2022-12-27T00:19:59.109Z,86.60
2022-12-27T00:20:17.964Z,86.50
2022-12-27T00:20:27.354Z,86.30
2022-12-27T00:20:36.742Z,86.30
2022-12-27T00:20:46.207Z,86.20
2022-12-27T00:20:55.659Z,86.20
2022-12-27T00:21:05.130Z,86.10
2022-12-27T00:21:14.519Z,86.20
2022-12-27T00:21:23.962Z,86.10
2022-12-27T00:21:33.372Z,86.00
2022-12-27T00:21:42.818Z,86.00
2022-12-27T00:21:52.191Z,85.80
2022-12-27T00:22:01.612Z,85.70
2022-12-27T00:22:11.019Z,85.70
2022-12-27T00:22:20.441Z,85.50
2022-12-27T00:22:29.859Z,85.70
2022-12-27T00:22:39.260Z,85.60
2022-12-27T00:22:58.088Z,85.40
2022-12-27T00:23:07.507Z,85.40
2022-12-27T00:23:16.929Z,85.40
2022-12-27T00:23:26.324Z,85.40
2022-12-27T00:23:35.728Z,85.40
2022-12-27T00:23:45.156Z,85.20
2022-12-27T00:23:54.564Z,85.30
2022-12-27T00:24:03.970Z,85.30
2022-12-27T00:24:13.376Z,85.20
2022-12-27T00:24:22.838Z,85.10
2022-12-27T00:24:32.190Z,85.10
2022-12-27T00:24:41.601Z,85.10
2022-12-27T00:24:50.985Z,85.00
2022-12-27T00:25:00.431Z,85.10
2022-12-27T00:25:09.844Z,85.10
2022-12-27T00:25:19.245Z,85.00
2022-12-27T00:25:38.110Z,84.90
2022-12-27T00:25:47.510Z,84.80
2022-12-27T00:25:56.896Z,84.80
2022-12-27T00:26:06.356Z,84.70
2022-12-27T00:26:15.798Z,84.60
2022-12-27T00:26:25.222Z,84.60
2022-12-27T00:26:34.664Z,84.60
2022-12-27T00:26:44.063Z,84.60
2022-12-27T00:26:53.541Z,84.50
2022-12-27T00:27:02.971Z,84.50
2022-12-27T00:27:12.430Z,84.50
2022-12-27T00:27:21.832Z,84.50
2022-12-27T00:27:31.290Z,84.50
2022-12-27T00:27:40.739Z,84.60
2022-12-27T00:27:50.182Z,84.50
2022-12-27T00:27:59.592Z,84.50
2022-12-27T00:28:09.013Z,84.50
2022-12-27T00:28:27.831Z,84.60
2022-12-27T00:28:37.242Z,84.50
2022-12-27T00:28:46.720Z,84.60
2022-12-27T00:28:56.134Z,84.70
2022-12-27T00:29:05.541Z,84.70
2022-12-27T00:29:14.952Z,84.70
2022-12-27T00:29:24.365Z,84.60
2022-12-27T00:29:33.791Z,84.60
2022-12-27T00:29:43.187Z,84.60
2022-12-27T00:29:52.607Z,84.60
2022-12-27T00:30:02.017Z,84.50
2022-12-27T00:30:11.486Z,84.50
2022-12-27T00:30:20.910Z,84.40
2022-12-27T00:30:30.325Z,84.40
2022-12-27T00:30:39.766Z,84.40
2022-12-27T00:30:49.164Z,84.40
2022-12-27T00:31:08.141Z,84.30
2022-12-27T00:31:17.560Z,84.30
2022-12-27T00:31:27.014Z,84.30
2022-12-27T00:31:36.443Z,84.50
2022-12-27T00:31:45.892Z,84.50
2022-12-27T00:31:55.203Z,84.40
2022-12-27T00:32:04.632Z,84.40
2022-12-27T00:32:13.970Z,84.30
2022-12-27T00:32:23.371Z,84.30
2022-12-27T00:32:32.871Z,84.40
2022-12-27T00:32:42.283Z,84.40
2022-12-27T00:32:51.694Z,84.30
2022-12-27T00:33:01.093Z,84.30
2022-12-27T00:33:10.507Z,84.30
2022-12-27T00:33:19.923Z,84.30
2022-12-27T00:33:29.321Z,84.30
2022-12-27T00:33:38.745Z,84.30
2022-12-27T00:33:57.591Z,84.20
2022-12-27T00:34:07.042Z,84.20
2022-12-27T00:34:16.500Z,84.10
2022-12-27T00:34:25.901Z,84.10
2022-12-27T00:34:35.304Z,84.10
2022-12-27T00:34:44.703Z,84.10
2022-12-27T00:34:54.119Z,84.10
2022-12-27T00:35:03.565Z,84.10
2022-12-27T00:35:13.035Z,84.10
2022-12-27T00:35:22.435Z,84.10
2022-12-27T00:35:31.851Z,84.10
2022-12-27T00:35:41.300Z,84.20
2022-12-27T00:35:50.801Z,84.30
2022-12-27T00:36:00.257Z,84.10
2022-12-27T00:36:09.652Z,84.10
2022-12-27T00:36:19.060Z,84.30
2022-12-27T00:36:37.947Z,84.20
2022-12-27T00:36:47.282Z,84.10
2022-12-27T00:36:56.693Z,84.00
2022-12-27T00:37:06.097Z,84.00
2022-12-27T00:37:15.507Z,84.00
2022-12-27T00:37:24.924Z,84.00
2022-12-27T00:37:34.315Z,84.00
2022-12-27T00:37:43.757Z,84.00
2022-12-27T00:37:53.161Z,83.90
2022-12-27T00:38:02.547Z,84.00
2022-12-27T00:38:11.961Z,84.00
2022-12-27T00:38:21.408Z,84.10
2022-12-27T00:38:30.814Z,84.00
2022-12-27T00:38:40.248Z,84.10
2022-12-27T00:38:49.650Z,84.00
2022-12-27T00:38:59.088Z,84.10
2022-12-27T00:39:17.924Z,84.10
2022-12-27T00:39:27.392Z,84.10
2022-12-27T00:39:36.743Z,84.10
2022-12-27T00:39:46.149Z,84.20
2022-12-27T00:39:55.527Z,84.20
2022-12-27T00:40:05.028Z,84.20
2022-12-27T00:40:14.429Z,84.20
2022-12-27T00:40:23.814Z,84.10
2022-12-27T00:40:33.248Z,84.10
2022-12-27T00:40:42.680Z,84.10
2022-12-27T00:40:52.097Z,84.20
2022-12-27T00:41:01.535Z,84.20
2022-12-27T00:41:10.934Z,84.20
2022-12-27T00:41:20.362Z,84.10
2022-12-27T00:41:29.794Z,84.10
2022-12-27T00:41:39.184Z,84.10
2022-12-27T00:41:58.052Z,84.20
2022-12-27T00:42:07.473Z,84.10
2022-12-27T00:42:16.924Z,84.10
2022-12-27T00:42:26.296Z,84.00
2022-12-27T00:42:35.694Z,84.10
2022-12-27T00:42:45.138Z,84.00
2022-12-27T00:42:54.521Z,84.00
2022-12-27T00:43:03.944Z,84.10
2022-12-27T00:43:13.398Z,84.00
2022-12-27T00:43:22.802Z,84.00
2022-12-27T00:43:32.224Z,84.00
2022-12-27T00:43:41.613Z,84.00
2022-12-27T00:43:51.031Z,84.00
2022-12-27T00:44:00.437Z,84.00
2022-12-27T00:44:09.830Z,84.00
2022-12-27T00:44:19.239Z,84.00
2022-12-27T00:44:38.024Z,84.00
2022-12-27T00:44:47.417Z,83.90
2022-12-27T00:44:56.811Z,83.90
2022-12-27T00:45:06.242Z,84.00
2022-12-27T00:45:15.722Z,84.00
2022-12-27T00:45:25.180Z,83.90
2022-12-27T00:45:34.628Z,83.90
2022-12-27T00:45:44.006Z,83.90
2022-12-27T00:45:53.389Z,83.70
2022-12-27T00:46:02.848Z,83.70
2022-12-27T00:46:12.233Z,83.70
2022-12-27T00:46:21.624Z,83.80
2022-12-27T00:46:31.068Z,83.80
2022-12-27T00:46:40.486Z,83.90
2022-12-27T00:46:49.945Z,83.80
2022-12-27T00:46:59.369Z,83.90
2022-12-27T00:47:08.823Z,83.90
2022-12-27T00:47:27.632Z,83.90
2022-12-27T00:47:37.049Z,83.90
2022-12-27T00:47:49.258Z,83.90
2022-12-27T00:47:58.695Z,83.90
2022-12-27T00:48:08.098Z,83.90
2022-12-27T00:48:17.579Z,83.90
2022-12-27T00:48:26.982Z,84.00
2022-12-27T00:48:36.389Z,84.00
2022-12-27T00:48:45.842Z,84.00
2022-12-27T00:48:55.261Z,84.00
2022-12-27T00:49:04.647Z,84.00
2022-12-27T00:49:14.053Z,84.00
2022-12-27T00:49:23.509Z,84.00
2022-12-27T00:49:32.892Z,84.00
2022-12-27T00:49:42.295Z,84.00
2022-12-27T00:49:51.797Z,84.00
2022-12-27T00:50:01.252Z,84.00
2022-12-27T00:50:10.658Z,84.00
2022-12-27T00:50:20.105Z,84.00
2022-12-27T00:50:29.536Z,84.00
2022-12-27T00:50:38.946Z,84.00
2022-12-27T00:50:57.751Z,84.00
2022-12-27T00:51:07.143Z,83.90
2022-12-27T00:51:16.572Z,83.90
2022-12-27T00:51:25.985Z,83.90
2022-12-27T00:51:35.467Z,83.90
2022-12-27T00:51:44.860Z,83.90
2022-12-27T00:51:54.272Z,83.90
2022-12-27T00:52:03.691Z,83.90
2022-12-27T00:52:13.089Z,83.90
2022-12-27T00:52:22.502Z,83.90
2022-12-27T00:52:31.928Z,83.80
2022-12-27T00:52:41.346Z,83.90
2022-12-27T00:52:50.759Z,83.90
2022-12-27T00:53:00.192Z,83.90
2022-12-27T00:53:09.593Z,83.90
2022-12-27T00:53:19.042Z,83.90
2022-12-27T00:53:37.918Z,84.00
2022-12-27T00:53:47.354Z,84.00
2022-12-27T00:53:56.781Z,83.90
2022-12-27T00:54:06.192Z,84.00
2022-12-27T00:54:15.593Z,84.00
2022-12-27T00:54:25.009Z,84.00
2022-12-27T00:54:34.435Z,84.00
2022-12-27T00:54:43.823Z,84.00
2022-12-27T00:54:53.250Z,84.00
2022-12-27T00:55:02.670Z,84.00
2022-12-27T00:55:12.131Z,84.00
2022-12-27T00:55:21.548Z,84.00
2022-12-27T00:55:30.960Z,84.00
2022-12-27T00:55:40.380Z,84.00
2022-12-27T00:55:49.782Z,84.10
2022-12-27T00:55:59.170Z,84.00
2022-12-27T00:56:18.013Z,84.10
2022-12-27T00:56:27.423Z,84.10
2022-12-27T00:56:36.882Z,84.10
2022-12-27T00:56:46.283Z,84.10
2022-12-27T00:56:55.667Z,84.10
2022-12-27T00:57:05.106Z,84.10
2022-12-27T00:57:14.501Z,84.10
2022-12-27T00:57:23.909Z,84.10
2022-12-27T00:57:33.311Z,84.10
2022-12-27T00:57:42.720Z,84.10
2022-12-27T00:57:52.114Z,84.10
2022-12-27T00:58:01.517Z,84.10
2022-12-27T00:58:10.939Z,84.10
2022-12-27T00:58:20.355Z,84.10
2022-12-27T00:58:29.776Z,84.20
2022-12-27T00:58:41.023Z,84.10
2022-12-27T00:58:57.985Z,84.20
2022-12-27T00:59:07.380Z,84.20
2022-12-27T00:59:16.802Z,84.20
2022-12-27T00:59:26.260Z,84.10
2022-12-27T00:59:35.690Z,84.10
2022-12-27T00:59:45.103Z,84.10
2022-12-27T00:59:54.486Z,84.10
2022-12-27T01:00:09.878Z,84.20
2022-12-27T01:00:13.339Z,84.20
2022-12-27T01:00:22.776Z,84.10
2022-12-27T01:00:32.268Z,84.10
2022-12-27T01:00:41.917Z,84.10
2022-12-27T01:00:51.164Z,84.20
2022-12-27T01:01:00.580Z,84.20
2022-12-27T01:01:10.013Z,84.20
2022-12-27T01:01:19.516Z,84.20
2022-12-27T01:01:28.953Z,84.10
2022-12-27T01:01:47.830Z,84.20
2022-12-27T01:01:57.200Z,84.30
2022-12-27T01:02:06.643Z,84.30
2022-12-27T01:02:15.998Z,84.30
2022-12-27T01:02:25.478Z,84.20
2022-12-27T01:02:34.900Z,84.20
2022-12-27T01:02:44.268Z,84.10
2022-12-27T01:02:53.656Z,84.10
2022-12-27T01:03:03.087Z,84.10
2022-12-27T01:03:12.479Z,84.00
2022-12-27T01:03:21.960Z,84.00
2022-12-27T01:03:31.338Z,84.00
2022-12-27T01:03:40.772Z,84.00
2022-12-27T01:03:50.192Z,84.00
2022-12-27T01:03:59.642Z,84.00
2022-12-27T01:04:09.016Z,84.00
2022-12-27T01:04:27.761Z,84.00
2022-12-27T01:04:37.202Z,83.90
2022-12-27T01:04:46.603Z,83.90
2022-12-27T01:04:56.019Z,83.90
2022-12-27T01:05:05.415Z,83.80
2022-12-27T01:05:14.835Z,83.80
2022-12-27T01:05:24.260Z,83.90
2022-12-27T01:05:33.683Z,83.90
2022-12-27T01:05:43.099Z,83.90
2022-12-27T01:05:52.511Z,83.90
2022-12-27T01:06:01.922Z,83.90
2022-12-27T01:06:11.333Z,83.90
2022-12-27T01:06:20.761Z,83.90
2022-12-27T01:06:30.166Z,83.90
2022-12-27T01:06:39.598Z,83.90
2022-12-27T01:06:48.985Z,83.90
2022-12-27T01:07:07.777Z,83.70
2022-12-27T01:07:17.207Z,83.80
2022-12-27T01:07:26.608Z,83.80
2022-12-27T01:07:36.025Z,83.90
2022-12-27T01:07:45.423Z,83.80
2022-12-27T01:07:54.807Z,83.90
2022-12-27T01:08:04.238Z,83.80
2022-12-27T01:08:13.665Z,83.70
2022-12-27T01:08:23.091Z,83.70
2022-12-27T01:08:32.500Z,83.70
2022-12-27T01:08:41.916Z,83.60
2022-12-27T01:08:51.353Z,83.60
2022-12-27T01:09:00.747Z,83.60
2022-12-27T01:09:10.157Z,83.70
2022-12-27T01:09:19.578Z,83.60
2022-12-27T01:09:29.012Z,83.60
2022-12-27T01:09:50.817Z,83.50
2022-12-27T01:09:57.802Z,83.50
2022-12-27T01:10:07.187Z,83.50
2022-12-27T01:10:16.568Z,83.50
2022-12-27T01:10:25.980Z,83.40
2022-12-27T01:10:35.453Z,83.40
2022-12-27T01:10:44.868Z,83.40
2022-12-27T01:10:54.328Z,83.50
2022-12-27T01:11:03.750Z,83.50
2022-12-27T01:11:13.142Z,83.60
2022-12-27T01:11:22.546Z,83.60
2022-12-27T01:11:31.990Z,83.60
2022-12-27T01:11:41.410Z,83.60
2022-12-27T01:11:50.799Z,83.50
2022-12-27T01:12:00.191Z,83.60
2022-12-27T01:12:09.595Z,83.50
2022-12-27T01:12:19.007Z,83.50
2022-12-27T01:12:37.807Z,83.40
2022-12-27T01:12:47.190Z,83.50
2022-12-27T01:12:56.587Z,83.40
2022-12-27T01:13:05.983Z,83.40
2022-12-27T01:13:15.413Z,83.60
2022-12-27T01:13:24.829Z,83.50
2022-12-27T01:13:34.216Z,83.60
2022-12-27T01:13:43.628Z,83.50
2022-12-27T01:13:53.024Z,83.50
2022-12-27T01:14:02.456Z,83.50
2022-12-27T01:14:11.820Z,83.40
2022-12-27T01:14:21.210Z,83.40
2022-12-27T01:14:30.664Z,83.30
2022-12-27T01:14:40.065Z,83.30
2022-12-27T01:14:49.528Z,83.20
2022-12-27T01:14:58.927Z,83.20
2022-12-27T01:15:17.781Z,83.20
2022-12-27T01:15:27.190Z,83.20
2022-12-27T01:15:36.643Z,83.20
2022-12-27T01:15:46.066Z,83.20
2022-12-27T01:15:55.482Z,83.10
2022-12-27T01:16:05.024Z,83.10
2022-12-27T01:16:14.464Z,83.10
2022-12-27T01:16:23.728Z,83.10
2022-12-27T01:16:33.182Z,83.10
2022-12-27T01:16:42.602Z,83.10
2022-12-27T01:16:51.999Z,83.10
2022-12-27T01:17:01.424Z,83.10
2022-12-27T01:17:10.802Z,83.10
2022-12-27T01:17:20.235Z,83.10
2022-12-27T01:17:29.654Z,83.10
2022-12-27T01:17:39.063Z,83.10
2022-12-27T01:17:57.918Z,83.10
2022-12-27T01:18:07.335Z,83.10
2022-12-27T01:18:16.773Z,83.10
2022-12-27T01:18:26.175Z,83.10
2022-12-27T01:18:35.576Z,83.00
2022-12-27T01:18:44.986Z,83.00
2022-12-27T01:18:54.433Z,83.10
2022-12-27T01:19:03.815Z,83.10
2022-12-27T01:19:13.210Z,83.10
2022-12-27T01:19:22.641Z,83.10
2022-12-27T01:19:32.120Z,83.10
2022-12-27T01:19:41.538Z,83.10
2022-12-27T01:19:50.915Z,83.10
2022-12-27T01:20:00.353Z,83.10
2022-12-27T01:20:09.788Z,83.10
2022-12-27T01:20:19.171Z,83.10
2022-12-27T01:20:37.992Z,83.10
2022-12-27T01:20:47.402Z,83.10
2022-12-27T01:20:56.817Z,83.20
2022-12-27T01:21:06.230Z,83.20
2022-12-27T01:21:15.652Z,83.20
2022-12-27T01:21:25.190Z,83.20
2022-12-27T01:21:34.578Z,83.20
2022-12-27T01:21:44.018Z,83.30
2022-12-27T01:21:53.441Z,83.20
2022-12-27T01:22:02.858Z,83.20
2022-12-27T01:22:12.278Z,83.20
2022-12-27T01:22:21.669Z,83.30
2022-12-27T01:22:31.211Z,83.20
2022-12-27T01:22:40.610Z,83.30
2022-12-27T01:22:50.010Z,83.30
2022-12-27T01:22:59.425Z,83.30
2022-12-27T01:23:08.848Z,83.30
2022-12-27T01:23:27.665Z,83.20
2022-12-27T01:23:37.075Z,83.20
2022-12-27T01:23:46.496Z,83.20
2022-12-27T01:23:55.934Z,83.20
2022-12-27T01:24:05.353Z,83.20
2022-12-27T01:24:14.745Z,83.30
2022-12-27T01:24:24.149Z,83.30
2022-12-27T01:24:33.557Z,83.30
2022-12-27T01:24:43.005Z,83.30
2022-12-27T01:24:52.382Z,83.30
2022-12-27T01:25:01.882Z,83.40
2022-12-27T01:25:11.316Z,83.40
2022-12-27T01:25:20.733Z,83.40
2022-12-27T01:25:30.128Z,83.40
2022-12-27T01:25:39.538Z,83.40
2022-12-27T01:25:48.987Z,83.40
2022-12-27T01:26:07.816Z,83.30
2022-12-27T01:26:17.191Z,83.30
2022-12-27T01:26:26.819Z,83.20
2022-12-27T01:26:36.189Z,83.30
2022-12-27T01:26:45.634Z,83.20
2022-12-27T01:26:55.054Z,83.20
2022-12-27T01:27:04.472Z,83.20
2022-12-27T01:27:13.920Z,83.20
2022-12-27T01:27:23.305Z,83.20
2022-12-27T01:27:32.695Z,83.30
2022-12-27T01:27:42.109Z,83.30
2022-12-27T01:27:51.503Z,83.30
2022-12-27T01:28:00.890Z,83.30
2022-12-27T01:28:10.325Z,83.20
2022-12-27T01:28:19.732Z,83.30
2022-12-27T01:28:29.201Z,83.30
2022-12-27T01:28:48.036Z,83.40
2022-12-27T01:28:57.422Z,83.40
2022-12-27T01:29:06.828Z,83.50
2022-12-27T01:29:16.231Z,83.50
2022-12-27T01:29:25.633Z,83.50
2022-12-27T01:29:35.057Z,83.60
2022-12-27T01:29:44.455Z,83.60
2022-12-27T01:29:53.892Z,83.60
2022-12-27T01:30:03.297Z,83.60
2022-12-27T01:30:12.703Z,83.70
2022-12-27T01:30:22.203Z,83.70
2022-12-27T01:30:31.629Z,83.70
2022-12-27T01:30:41.056Z,83.70
2022-12-27T01:30:50.444Z,83.80
2022-12-27T01:30:59.836Z,83.80
2022-12-27T01:31:09.241Z,83.80
2022-12-27T01:31:28.318Z,83.90
2022-12-27T01:31:37.477Z,83.90
2022-12-27T01:31:46.905Z,83.80
2022-12-27T01:31:56.294Z,83.80
2022-12-27T01:32:05.746Z,83.90
2022-12-27T01:32:15.057Z,83.80
2022-12-27T01:32:24.457Z,83.90
2022-12-27T01:32:33.871Z,83.90
2022-12-27T01:32:43.276Z,83.80
2022-12-27T01:32:52.688Z,83.80
2022-12-27T01:33:02.091Z,83.90
2022-12-27T01:33:11.489Z,83.90
2022-12-27T01:33:20.922Z,83.90
2022-12-27T01:33:30.328Z,83.90
2022-12-27T01:33:39.719Z,83.90
2022-12-27T01:33:49.136Z,83.90
2022-12-27T01:34:07.947Z,83.90
2022-12-27T01:34:17.350Z,83.90
2022-12-27T01:34:26.722Z,83.90
2022-12-27T01:34:36.127Z,83.90
2022-12-27T01:34:45.535Z,83.90
2022-12-27T01:34:54.935Z,83.90
2022-12-27T01:35:04.356Z,83.80
2022-12-27T01:35:13.772Z,83.90
2022-12-27T01:35:23.175Z,83.90
2022-12-27T01:35:32.600Z,83.90
2022-12-27T01:35:42.003Z,83.90
2022-12-27T01:35:51.450Z,83.80
2022-12-27T01:36:00.875Z,83.80
2022-12-27T01:36:10.289Z,83.90
2022-12-27T01:36:19.691Z,83.90
2022-12-27T01:36:29.164Z,83.90
2022-12-27T01:36:47.971Z,83.80
2022-12-27T01:36:57.386Z,83.70
2022-12-27T01:37:06.795Z,83.70
2022-12-27T01:37:16.242Z,83.80
2022-12-27T01:37:25.640Z,83.70
2022-12-27T01:37:35.118Z,83.70
2022-12-27T01:37:44.493Z,83.70
2022-12-27T01:37:53.901Z,83.70
2022-12-27T01:38:03.325Z,83.70
2022-12-27T01:38:12.735Z,83.70
2022-12-27T01:38:22.132Z,83.70
2022-12-27T01:38:31.563Z,83.70
2022-12-27T01:38:41.050Z,83.80
2022-12-27T01:38:50.462Z,83.70
2022-12-27T01:38:59.840Z,83.70
2022-12-27T01:39:09.277Z,83.70
2022-12-27T01:39:28.077Z,83.70
2022-12-27T01:39:37.489Z,83.60
2022-12-27T01:39:46.947Z,83.70
2022-12-27T01:39:56.314Z,83.70
2022-12-27T01:40:05.735Z,83.70
2022-12-27T01:40:15.131Z,83.70
2022-12-27T01:40:24.517Z,83.70
2022-12-27T01:40:33.952Z,83.70
2022-12-27T01:40:43.362Z,83.70
2022-12-27T01:40:52.820Z,83.70
2022-12-27T01:41:02.259Z,83.70
2022-12-27T01:41:11.642Z,83.70
2022-12-27T01:41:21.018Z,83.70
2022-12-27T01:41:30.461Z,83.70
2022-12-27T01:41:39.910Z,83.70
2022-12-27T01:41:49.278Z,83.70
2022-12-27T01:42:08.065Z,83.60
2022-12-27T01:42:17.465Z,83.60
2022-12-27T01:42:26.858Z,83.60
2022-12-27T01:42:36.298Z,83.60
2022-12-27T01:42:45.689Z,83.60
2022-12-27T01:42:55.111Z,83.60
2022-12-27T01:43:04.486Z,83.60
2022-12-27T01:43:13.898Z,83.60
2022-12-27T01:43:23.294Z,83.60
2022-12-27T01:43:32.686Z,83.50
2022-12-27T01:43:42.077Z,83.60
2022-12-27T01:43:51.472Z,83.60
2022-12-27T01:44:00.862Z,83.60
2022-12-27T01:44:10.268Z,83.70
2022-12-27T01:44:19.687Z,83.70
2022-12-27T01:44:29.090Z,83.70
2022-12-27T01:44:47.912Z,83.70
2022-12-27T01:44:57.388Z,83.70
2022-12-27T01:45:06.791Z,83.70
2022-12-27T01:45:16.209Z,83.70
2022-12-27T01:45:25.645Z,83.70
2022-12-27T01:45:35.100Z,83.70
2022-12-27T01:45:44.519Z,83.70
2022-12-27T01:45:53.825Z,83.70
2022-12-27T01:46:03.252Z,83.70
2022-12-27T01:46:12.660Z,83.70
2022-12-27T01:46:22.027Z,83.70
2022-12-27T01:46:31.422Z,83.80
2022-12-27T01:46:40.845Z,83.70
2022-12-27T01:46:50.291Z,83.80
2022-12-27T01:46:59.753Z,83.70
2022-12-27T01:47:09.198Z,83.70
2022-12-27T01:47:27.999Z,83.80
2022-12-27T01:47:37.405Z,83.80
2022-12-27T01:47:46.818Z,83.90
2022-12-27T01:47:56.196Z,83.80
2022-12-27T01:48:05.614Z,83.80
2022-12-27T01:48:15.017Z,83.90
2022-12-27T01:48:24.427Z,84.00
2022-12-27T01:48:33.839Z,84.00
2022-12-27T01:48:43.232Z,84.00
2022-12-27T01:48:52.652Z,84.00
2022-12-27T01:49:05.091Z,84.00
2022-12-27T01:49:11.493Z,84.00
2022-12-27T01:49:20.902Z,84.00
2022-12-27T01:49:30.289Z,84.00
2022-12-27T01:49:39.700Z,84.00
2022-12-27T01:49:49.099Z,84.00
2022-12-27T01:50:07.951Z,84.10
2022-12-27T01:50:17.341Z,84.10
2022-12-27T01:50:26.715Z,84.10
2022-12-27T01:50:36.113Z,84.10
2022-12-27T01:50:45.525Z,84.10
2022-12-27T01:50:54.946Z,84.00
2022-12-27T01:51:04.352Z,84.10
2022-12-27T01:51:13.752Z,84.10
2022-12-27T01:51:23.133Z,84.00
2022-12-27T01:51:32.542Z,84.10
2022-12-27T01:51:41.985Z,84.00
2022-12-27T01:51:51.506Z,84.00
2022-12-27T01:52:00.905Z,84.00
2022-12-27T01:52:10.324Z,84.10
2022-12-27T01:52:19.749Z,84.10
2022-12-27T01:52:30.548Z,84.10
2022-12-27T01:52:47.958Z,84.10
2022-12-27T01:52:57.364Z,84.10
2022-12-27T01:53:06.778Z,84.10
2022-12-27T01:53:16.177Z,84.10
2022-12-27T01:53:25.612Z,84.10
2022-12-27T01:53:35.061Z,84.10
2022-12-27T01:53:44.495Z,84.10
2022-12-27T01:53:53.911Z,84.10
2022-12-27T01:54:03.334Z,84.10
2022-12-27T01:54:12.730Z,84.10
2022-12-27T01:54:22.151Z,84.10
2022-12-27T01:54:31.562Z,84.10
2022-12-27T01:54:40.963Z,84.10
2022-12-27T01:54:50.405Z,84.10
2022-12-27T01:54:59.757Z,84.10
2022-12-27T01:55:09.168Z,84.10
2022-12-27T01:55:27.954Z,84.10
2022-12-27T01:55:37.383Z,84.10
2022-12-27T01:55:46.833Z,84.10
2022-12-27T01:55:56.209Z,84.10
2022-12-27T01:56:05.594Z,84.10
2022-12-27T01:56:14.995Z,84.10
2022-12-27T01:56:24.400Z,84.10
2022-12-27T01:56:33.819Z,84.10
2022-12-27T01:56:43.254Z,84.10
2022-12-27T01:56:52.640Z,84.10
2022-12-27T01:57:02.054Z,84.10
2022-12-27T01:57:11.483Z,84.10
2022-12-27T01:57:20.923Z,84.10
2022-12-27T01:57:30.400Z,84.10
2022-12-27T01:57:39.839Z,84.20
2022-12-27T01:57:49.256Z,84.30
2022-12-27T01:58:08.086Z,84.30
2022-12-27T01:58:17.508Z,84.30
2022-12-27T01:58:26.922Z,84.30
2022-12-27T01:58:36.302Z,84.30
2022-12-27T01:58:45.683Z,84.30
2022-12-27T01:58:55.103Z,84.30
2022-12-27T01:59:04.488Z,84.30
2022-12-27T01:59:13.902Z,84.20
2022-12-27T01:59:23.307Z,84.20
2022-12-27T01:59:32.707Z,84.30
2022-12-27T01:59:42.104Z,84.30
2022-12-27T01:59:54.121Z,84.30
2022-12-27T02:00:03.541Z,84.30
2022-12-27T02:00:12.952Z,84.30
2022-12-27T02:00:22.348Z,84.30
2022-12-27T02:00:31.768Z,84.40
2022-12-27T02:00:41.161Z,84.40
2022-12-27T02:00:50.651Z,84.30
2022-12-27T02:01:00.094Z,84.30
2022-12-27T02:01:09.525Z,84.30
2022-12-27T02:01:18.990Z,84.30
2022-12-27T02:01:37.822Z,84.30
2022-12-27T02:01:47.260Z,84.30
2022-12-27T02:01:56.593Z,84.40
2022-12-27T02:02:06.150Z,84.40
2022-12-27T02:02:15.492Z,84.40
2022-12-27T02:02:24.869Z,84.40
2022-12-27T02:02:34.247Z,84.40
2022-12-27T02:02:43.639Z,84.40
2022-12-27T02:02:52.995Z,84.50
2022-12-27T02:03:02.496Z,84.40
2022-12-27T02:03:11.844Z,84.50
2022-12-27T02:03:21.280Z,84.50
2022-12-27T02:03:30.624Z,84.60
2022-12-27T02:03:40.035Z,84.60
2022-12-27T02:03:49.391Z,84.60
2022-12-27T02:03:58.799Z,84.60
2022-12-27T02:04:17.628Z,84.60
2022-12-27T02:04:27.053Z,84.60
2022-12-27T02:04:36.571Z,84.60
2022-12-27T02:04:45.995Z,84.60
2022-12-27T02:04:55.410Z,84.70
2022-12-27T02:05:04.831Z,84.70
2022-12-27T02:05:14.244Z,84.60
2022-12-27T02:05:23.640Z,84.70
2022-12-27T02:05:33.041Z,84.60
2022-12-27T02:05:42.452Z,84.60
2022-12-27T02:05:51.893Z,84.60
2022-12-27T02:06:01.338Z,84.60
2022-12-27T02:06:10.723Z,84.60
2022-12-27T02:06:20.137Z,84.70
2022-12-27T02:06:29.568Z,84.60
2022-12-27T02:06:38.977Z,84.60
2022-12-27T02:06:57.835Z,84.70
2022-12-27T02:07:07.238Z,84.70
2022-12-27T02:07:16.658Z,84.70
2022-12-27T02:07:26.055Z,84.70
2022-12-27T02:07:35.464Z,84.70
2022-12-27T02:07:44.879Z,84.70
2022-12-27T02:07:54.279Z,84.70
2022-12-27T02:08:03.724Z,84.70
2022-12-27T02:08:13.158Z,84.70
2022-12-27T02:08:22.577Z,84.70
2022-12-27T02:08:32.014Z,84.70
2022-12-27T02:08:41.452Z,84.60
2022-12-27T02:08:50.836Z,84.70